sensor_id;sensor_type;location;lat;lon;timestamp;temperature;humidity
9723;DHT22;4900;49.306;8.500;2023-02-28T00:00:21;0.87;58.03
9723;DHT22;4900;49.306;8.500;2023-02-28T00:02:47;0.80;58.12
9723;DHT22;4900;49.306;8.500;2023-02-28T00:05:14;0.75;58.30
9723;DHT22;4900;49.306;8.500;2023-02-28T00:07:40;0.68;58.43
9723;DHT22;4900;49.306;8.500;2023-02-28T00:10:10;0.61;58.84
9723;DHT22;4900;49.306;8.500;2023-02-28T00:12:36;0.62;58.80
9723;DHT22;4900;49.306;8.500;2023-02-28T00:15:05;0.55;58.84
9723;DHT22;4900;49.306;8.500;2023-02-28T00:17:31;0.55;58.66
9723;DHT22;4900;49.306;8.500;2023-02-28T00:19:57;0.50;58.70
9723;DHT22;4900;49.306;8.500;2023-02-28T00:22:30;0.48;58.69
9723;DHT22;4900;49.306;8.500;2023-02-28T00:24:56;0.41;58.72
9723;DHT22;4900;49.306;8.500;2023-02-28T00:27:22;0.34;59.18
9723;DHT22;4900;49.306;8.500;2023-02-28T00:29:47;0.33;59.22
9723;DHT22;4900;49.306;8.500;2023-02-28T00:32:13;0.29;59.31
9723;DHT22;4900;49.306;8.500;2023-02-28T00:34:38;0.24;59.48
9723;DHT22;4900;49.306;8.500;2023-02-28T00:37:05;0.19;59.73
9723;DHT22;4900;49.306;8.500;2023-02-28T00:39:31;0.16;59.93
9723;DHT22;4900;49.306;8.500;2023-02-28T00:41:58;0.13;60.27
9723;DHT22;4900;49.306;8.500;2023-02-28T00:44:23;0.10;60.23
9723;DHT22;4900;49.306;8.500;2023-02-28T00:46:49;0.09;60.17
9723;DHT22;4900;49.306;8.500;2023-02-28T00:49:14;0.07;60.28
9723;DHT22;4900;49.306;8.500;2023-02-28T00:51:40;0.02;60.40
9723;DHT22;4900;49.306;8.500;2023-02-28T00:54:05;0.00;60.51
9723;DHT22;4900;49.306;8.500;2023-02-28T00:56:30;-0.01;60.50
9723;DHT22;4900;49.306;8.500;2023-02-28T00:58:56;-0.05;60.61
9723;DHT22;4900;49.306;8.500;2023-02-28T01:01:21;-0.07;60.71
9723;DHT22;4900;49.306;8.500;2023-02-28T01:03:47;-0.11;60.86
9723;DHT22;4900;49.306;8.500;2023-02-28T01:06:12;-0.15;61.16
9723;DHT22;4900;49.306;8.500;2023-02-28T01:08:38;-0.17;61.32
9723;DHT22;4900;49.306;8.500;2023-02-28T01:11:10;-0.21;61.51
9723;DHT22;4900;49.306;8.500;2023-02-28T01:13:36;-0.19;61.62
9723;DHT22;4900;49.306;8.500;2023-02-28T01:16:01;-0.25;61.95
9723;DHT22;4900;49.306;8.500;2023-02-28T01:18:27;-0.26;62.11
9723;DHT22;4900;49.306;8.500;2023-02-28T01:20:54;-0.26;62.22
9723;DHT22;4900;49.306;8.500;2023-02-28T01:23:21;-0.25;62.34
9723;DHT22;4900;49.306;8.500;2023-02-28T01:25:49;-0.29;62.36
9723;DHT22;4900;49.306;8.500;2023-02-28T01:28:14;-0.28;62.33
9723;DHT22;4900;49.306;8.500;2023-02-28T01:30:40;-0.29;62.31
9723;DHT22;4900;49.306;8.500;2023-02-28T01:33:05;-0.35;62.40
9723;DHT22;4900;49.306;8.500;2023-02-28T01:35:35;-0.36;62.40
9723;DHT22;4900;49.306;8.500;2023-02-28T01:38:01;-0.36;62.40
9723;DHT22;4900;49.306;8.500;2023-02-28T01:40:27;-0.42;62.41
9723;DHT22;4900;49.306;8.500;2023-02-28T01:42:53;-0.48;62.60
9723;DHT22;4900;49.306;8.500;2023-02-28T01:45:31;-0.48;62.77
9723;DHT22;4900;49.306;8.500;2023-02-28T01:48:02;-0.50;63.10
9723;DHT22;4900;49.306;8.500;2023-02-28T01:50:34;-0.53;63.16
9723;DHT22;4900;49.306;8.500;2023-02-28T01:53:04;-0.56;63.17
9723;DHT22;4900;49.306;8.500;2023-02-28T01:55:31;-0.56;63.29
9723;DHT22;4900;49.306;8.500;2023-02-28T01:58:00;-0.63;63.24
9723;DHT22;4900;49.306;8.500;2023-02-28T02:00:28;-0.60;63.15
9723;DHT22;4900;49.306;8.500;2023-02-28T02:03:16;-0.64;63.31
9723;DHT22;4900;49.306;8.500;2023-02-28T02:05:44;-0.71;63.50
9723;DHT22;4900;49.306;8.500;2023-02-28T02:08:17;-0.73;63.84
9723;DHT22;4900;49.306;8.500;2023-02-28T02:10:54;-0.76;64.08
9723;DHT22;4900;49.306;8.500;2023-02-28T02:25:23;-0.74;64.91
9723;DHT22;4900;49.306;8.500;2023-02-28T02:28:13;-0.77;64.83
9723;DHT22;4900;49.306;8.500;2023-02-28T02:30:56;-0.78;64.88
9723;DHT22;4900;49.306;8.500;2023-02-28T02:38:47;-0.84;65.09
9723;DHT22;4900;49.306;8.500;2023-02-28T02:41:28;-0.88;65.37
9723;DHT22;4900;49.306;8.500;2023-02-28T02:46:39;-0.91;65.33
9723;DHT22;4900;49.306;8.500;2023-02-28T02:49:09;-0.92;65.39
9723;DHT22;4900;49.306;8.500;2023-02-28T02:51:36;-0.91;65.44
9723;DHT22;4900;49.306;8.500;2023-02-28T02:54:15;-0.94;65.42
9723;DHT22;4900;49.306;8.500;2023-02-28T02:56:44;-0.97;65.28
9723;DHT22;4900;49.306;8.500;2023-02-28T02:59:13;-0.97;65.25
9723;DHT22;4900;49.306;8.500;2023-02-28T03:01:41;-0.98;65.20
9723;DHT22;4900;49.306;8.500;2023-02-28T03:04:17;-0.98;65.19
9723;DHT22;4900;49.306;8.500;2023-02-28T03:06:43;-1.02;65.10
9723;DHT22;4900;49.306;8.500;2023-02-28T03:09:08;-1.05;65.03
9723;DHT22;4900;49.306;8.500;2023-02-28T03:11:36;-1.08;64.99
9723;DHT22;4900;49.306;8.500;2023-02-28T03:14:25;-1.11;65.13
9723;DHT22;4900;49.306;8.500;2023-02-28T03:17:16;-1.12;65.19
9723;DHT22;4900;49.306;8.500;2023-02-28T03:19:54;-1.16;65.14
9723;DHT22;4900;49.306;8.500;2023-02-28T03:22:33;-1.21;65.14
9723;DHT22;4900;49.306;8.500;2023-02-28T03:28:41;-1.25;65.39
9723;DHT22;4900;49.306;8.500;2023-02-28T03:31:30;-1.29;65.58
9723;DHT22;4900;49.306;8.500;2023-02-28T03:34:10;-1.31;65.81
9723;DHT22;4900;49.306;8.500;2023-02-28T03:36:50;-1.29;65.73
9723;DHT22;4900;49.306;8.500;2023-02-28T03:39:22;-1.33;65.65
9723;DHT22;4900;49.306;8.500;2023-02-28T03:41:56;-1.32;65.65
9723;DHT22;4900;49.306;8.500;2023-02-28T03:44:27;-1.36;65.73
9723;DHT22;4900;49.306;8.500;2023-02-28T03:47:02;-1.35;65.82
9723;DHT22;4900;49.306;8.500;2023-02-28T03:49:36;-1.38;65.92
9723;DHT22;4900;49.306;8.500;2023-02-28T03:52:07;-1.39;65.76
9723;DHT22;4900;49.306;8.500;2023-02-28T03:54:38;-1.43;65.89
9723;DHT22;4900;49.306;8.500;2023-02-28T03:57:27;-1.46;65.96
9723;DHT22;4900;49.306;8.500;2023-02-28T03:59:59;-1.49;65.92
9723;DHT22;4900;49.306;8.500;2023-02-28T04:02:29;-1.50;65.93
9723;DHT22;4900;49.306;8.500;2023-02-28T04:04:55;-1.54;65.93
9723;DHT22;4900;49.306;8.500;2023-02-28T04:07:20;-1.54;66.05
9723;DHT22;4900;49.306;8.500;2023-02-28T04:09:46;-1.56;66.12
9723;DHT22;4900;49.306;8.500;2023-02-28T04:12:11;-1.53;66.08
9723;DHT22;4900;49.306;8.500;2023-02-28T04:14:37;-1.54;66.10
9723;DHT22;4900;49.306;8.500;2023-02-28T04:17:02;-1.59;66.35
9723;DHT22;4900;49.306;8.500;2023-02-28T04:19:28;-1.61;66.48
9723;DHT22;4900;49.306;8.500;2023-02-28T04:21:53;-1.63;66.89
9723;DHT22;4900;49.306;8.500;2023-02-28T04:24:27;-1.63;66.84
9723;DHT22;4900;49.306;8.500;2023-02-28T04:26:54;-1.64;66.96
9723;DHT22;4900;49.306;8.500;2023-02-28T04:29:23;-1.60;67.00
9723;DHT22;4900;49.306;8.500;2023-02-28T04:31:49;-1.61;67.12
9723;DHT22;4900;49.306;8.500;2023-02-28T04:34:15;-1.56;67.36
9723;DHT22;4900;49.306;8.500;2023-02-28T04:36:40;-1.51;67.49
9723;DHT22;4900;49.306;8.500;2023-02-28T04:39:06;-1.47;67.51
9723;DHT22;4900;49.306;8.500;2023-02-28T04:41:31;-1.40;67.59
9723;DHT22;4900;49.306;8.500;2023-02-28T04:43:57;-1.32;67.55
9723;DHT22;4900;49.306;8.500;2023-02-28T04:46:23;-1.28;67.67
9723;DHT22;4900;49.306;8.500;2023-02-28T04:48:49;-1.23;67.93
9723;DHT22;4900;49.306;8.500;2023-02-28T04:51:16;-1.21;67.99
9723;DHT22;4900;49.306;8.500;2023-02-28T04:53:42;-1.16;68.25
9723;DHT22;4900;49.306;8.500;2023-02-28T04:56:12;-1.11;68.37
9723;DHT22;4900;49.306;8.500;2023-02-28T04:58:38;-1.08;68.77
9723;DHT22;4900;49.306;8.500;2023-02-28T05:03:41;-0.97;68.79
9723;DHT22;4900;49.306;8.500;2023-02-28T05:06:08;-0.94;68.90
9723;DHT22;4900;49.306;8.500;2023-02-28T05:08:34;-0.91;69.09
9723;DHT22;4900;49.306;8.500;2023-02-28T05:11:00;-0.78;69.09
9723;DHT22;4900;49.306;8.500;2023-02-28T05:13:29;-0.74;68.83
9723;DHT22;4900;49.306;8.500;2023-02-28T05:15:55;-0.67;68.66
9723;DHT22;4900;49.306;8.500;2023-02-28T05:18:21;-0.63;68.63
9723;DHT22;4900;49.306;8.500;2023-02-28T05:20:46;-0.61;68.71
9723;DHT22;4900;49.306;8.500;2023-02-28T05:23:12;-0.52;68.55
9723;DHT22;4900;49.306;8.500;2023-02-28T05:25:39;-0.49;68.58
9723;DHT22;4900;49.306;8.500;2023-02-28T05:28:04;-0.43;68.46
9723;DHT22;4900;49.306;8.500;2023-02-28T05:30:30;-0.38;68.38
9723;DHT22;4900;49.306;8.500;2023-02-28T05:32:57;-0.32;68.43
9723;DHT22;4900;49.306;8.500;2023-02-28T05:35:23;-0.29;68.39
9723;DHT22;4900;49.306;8.500;2023-02-28T05:37:49;-0.26;68.24
9723;DHT22;4900;49.306;8.500;2023-02-28T05:40:15;-0.22;68.11
9723;DHT22;4900;49.306;8.500;2023-02-28T05:42:41;-0.15;67.93
9723;DHT22;4900;49.306;8.500;2023-02-28T05:45:08;-0.11;67.81
9723;DHT22;4900;49.306;8.500;2023-02-28T05:47:34;-0.08;67.61
9723;DHT22;4900;49.306;8.500;2023-02-28T05:49:59;-0.07;67.61
9723;DHT22;4900;49.306;8.500;2023-02-28T05:52:26;-0.05;67.51
9723;DHT22;4900;49.306;8.500;2023-02-28T05:54:52;-0.03;67.47
9723;DHT22;4900;49.306;8.500;2023-02-28T05:57:17;-0.04;67.30
9723;DHT22;4900;49.306;8.500;2023-02-28T05:59:43;0.02;67.24
9723;DHT22;4900;49.306;8.500;2023-02-28T06:02:12;0.03;67.07
9723;DHT22;4900;49.306;8.500;2023-02-28T06:04:38;0.05;66.77
9723;DHT22;4900;49.306;8.500;2023-02-28T06:07:03;0.06;66.64
9723;DHT22;4900;49.306;8.500;2023-02-28T06:09:29;0.05;66.55
9723;DHT22;4900;49.306;8.500;2023-02-28T06:11:57;0.05;66.35
9723;DHT22;4900;49.306;8.500;2023-02-28T06:14:22;0.03;66.44
9723;DHT22;4900;49.306;8.500;2023-02-28T06:16:48;0.06;66.38
9723;DHT22;4900;49.306;8.500;2023-02-28T06:19:13;0.09;66.27
9723;DHT22;4900;49.306;8.500;2023-02-28T06:21:40;0.06;66.23
9723;DHT22;4900;49.306;8.500;2023-02-28T06:24:06;0.07;66.20
9723;DHT22;4900;49.306;8.500;2023-02-28T06:26:31;0.09;66.28
9723;DHT22;4900;49.306;8.500;2023-02-28T06:28:57;0.12;66.42
9723;DHT22;4900;49.306;8.500;2023-02-28T06:31:22;0.16;66.16
9723;DHT22;4900;49.306;8.500;2023-02-28T06:33:48;0.23;66.08
9723;DHT22;4900;49.306;8.500;2023-02-28T06:36:15;0.29;65.97
9723;DHT22;4900;49.306;8.500;2023-02-28T06:38:41;0.36;65.82
9723;DHT22;4900;49.306;8.500;2023-02-28T06:41:07;0.41;65.74
9723;DHT22;4900;49.306;8.500;2023-02-28T06:43:35;0.52;65.48
9723;DHT22;4900;49.306;8.500;2023-02-28T06:46:04;0.62;65.31
9723;DHT22;4900;49.306;8.500;2023-02-28T06:48:29;0.75;64.98
9723;DHT22;4900;49.306;8.500;2023-02-28T06:51:05;0.83;64.78
9723;DHT22;4900;49.306;8.500;2023-02-28T06:53:31;0.89;64.55
9723;DHT22;4900;49.306;8.500;2023-02-28T06:55:56;0.97;64.37
9723;DHT22;4900;49.306;8.500;2023-02-28T06:58:22;1.13;64.03
9723;DHT22;4900;49.306;8.500;2023-02-28T07:00:51;1.20;63.76
9723;DHT22;4900;49.306;8.500;2023-02-28T07:03:17;1.34;63.40
9723;DHT22;4900;49.306;8.500;2023-02-28T07:05:43;1.42;63.15
9723;DHT22;4900;49.306;8.500;2023-02-28T07:08:09;1.59;62.66
9723;DHT22;4900;49.306;8.500;2023-02-28T07:10:37;1.70;62.33
9723;DHT22;4900;49.306;8.500;2023-02-28T07:13:04;1.76;62.09
9723;DHT22;4900;49.306;8.500;2023-02-28T07:15:29;1.89;61.70
9723;DHT22;4900;49.306;8.500;2023-02-28T07:17:55;1.98;61.41
9723;DHT22;4900;49.306;8.500;2023-02-28T07:20:21;2.13;61.10
9723;DHT22;4900;49.306;8.500;2023-02-28T07:22:48;2.25;60.79
9723;DHT22;4900;49.306;8.500;2023-02-28T07:25:21;2.46;60.39
9723;DHT22;4900;49.306;8.500;2023-02-28T07:27:46;2.62;59.97
9723;DHT22;4900;49.306;8.500;2023-02-28T07:30:12;2.93;59.43
9723;DHT22;4900;49.306;8.500;2023-02-28T07:32:38;3.25;59.08
9723;DHT22;4900;49.306;8.500;2023-02-28T07:35:04;3.41;58.36
9723;DHT22;4900;49.306;8.500;2023-02-28T07:37:29;3.66;57.74
9723;DHT22;4900;49.306;8.500;2023-02-28T07:39:56;3.94;57.38
9723;DHT22;4900;49.306;8.500;2023-02-28T07:42:22;4.15;56.63
9723;DHT22;4900;49.306;8.500;2023-02-28T07:44:47;4.29;56.06
9723;DHT22;4900;49.306;8.500;2023-02-28T07:47:14;4.45;55.69
9723;DHT22;4900;49.306;8.500;2023-02-28T07:49:39;4.57;55.31
9723;DHT22;4900;49.306;8.500;2023-02-28T07:52:06;4.67;54.91
9723;DHT22;4900;49.306;8.500;2023-02-28T07:54:32;4.77;54.58
9723;DHT22;4900;49.306;8.500;2023-02-28T07:56:58;4.83;54.41
9723;DHT22;4900;49.306;8.500;2023-02-28T07:59:24;4.88;53.74
9723;DHT22;4900;49.306;8.500;2023-02-28T08:01:50;5.11;53.03
9723;DHT22;4900;49.306;8.500;2023-02-28T08:04:17;5.20;52.57
9723;DHT22;4900;49.306;8.500;2023-02-28T08:06:43;5.23;52.57
9723;DHT22;4900;49.306;8.500;2023-02-28T08:09:08;5.47;51.86
9723;DHT22;4900;49.306;8.500;2023-02-28T08:11:34;5.57;51.46
9723;DHT22;4900;49.306;8.500;2023-02-28T08:14:00;5.46;51.71
9723;DHT22;4900;49.306;8.500;2023-02-28T08:16:25;5.59;51.75
9723;DHT22;4900;49.306;8.500;2023-02-28T08:18:51;5.59;51.26
9723;DHT22;4900;49.306;8.500;2023-02-28T08:21:19;5.78;50.89
9723;DHT22;4900;49.306;8.500;2023-02-28T08:23:47;5.88;50.64
9723;DHT22;4900;49.306;8.500;2023-02-28T08:26:14;6.10;50.04
9723;DHT22;4900;49.306;8.500;2023-02-28T08:28:39;6.32;49.65
9723;DHT22;4900;49.306;8.500;2023-02-28T08:31:10;6.36;49.29
9723;DHT22;4900;49.306;8.500;2023-02-28T08:33:36;6.43;48.80
9723;DHT22;4900;49.306;8.500;2023-02-28T08:36:02;6.57;48.60
9723;DHT22;4900;49.306;8.500;2023-02-28T08:38:27;6.68;48.06
9723;DHT22;4900;49.306;8.500;2023-02-28T08:41:03;6.65;47.98
9723;DHT22;4900;49.306;8.500;2023-02-28T08:43:31;6.74;48.23
9723;DHT22;4900;49.306;8.500;2023-02-28T08:45:57;6.96;47.73
9723;DHT22;4900;49.306;8.500;2023-02-28T08:48:23;6.93;47.61
9723;DHT22;4900;49.306;8.500;2023-02-28T08:50:57;7.12;46.82
9723;DHT22;4900;49.306;8.500;2023-02-28T08:53:22;7.23;46.71
9723;DHT22;4900;49.306;8.500;2023-02-28T08:55:59;7.31;46.59
9723;DHT22;4900;49.306;8.500;2023-02-28T08:58:25;7.44;46.27
9723;DHT22;4900;49.306;8.500;2023-02-28T09:00:51;7.33;45.99
9723;DHT22;4900;49.306;8.500;2023-02-28T09:03:17;7.38;46.17
9723;DHT22;4900;49.306;8.500;2023-02-28T09:05:56;7.44;45.82
9723;DHT22;4900;49.306;8.500;2023-02-28T09:08:23;7.51;45.79
9723;DHT22;4900;49.306;8.500;2023-02-28T09:10:49;7.50;45.73
9723;DHT22;4900;49.306;8.500;2023-02-28T09:13:14;7.40;46.25
9723;DHT22;4900;49.306;8.500;2023-02-28T09:15:40;7.45;46.39
9723;DHT22;4900;49.306;8.500;2023-02-28T09:18:05;7.47;45.84
9723;DHT22;4900;49.306;8.500;2023-02-28T09:20:31;7.68;45.89
9723;DHT22;4900;49.306;8.500;2023-02-28T09:22:56;8.02;45.44
9723;DHT22;4900;49.306;8.500;2023-02-28T09:25:22;8.14;44.91
9723;DHT22;4900;49.306;8.500;2023-02-28T09:27:47;8.42;44.55
9723;DHT22;4900;49.306;8.500;2023-02-28T09:30:13;8.73;44.15
9723;DHT22;4900;49.306;8.500;2023-02-28T09:32:39;9.06;43.44
9723;DHT22;4900;49.306;8.500;2023-02-28T09:35:05;9.23;43.17
9723;DHT22;4900;49.306;8.500;2023-02-28T09:37:31;9.58;42.86
9723;DHT22;4900;49.306;8.500;2023-02-28T09:39:57;9.91;42.22
9723;DHT22;4900;49.306;8.500;2023-02-28T09:42:31;10.04;41.58
9723;DHT22;4900;49.306;8.500;2023-02-28T09:44:58;10.39;41.32
9723;DHT22;4900;49.306;8.500;2023-02-28T09:47:35;10.80;40.95
9723;DHT22;4900;49.306;8.500;2023-02-28T09:52:52;11.11;39.61
9723;DHT22;4900;49.306;8.500;2023-02-28T09:57:46;11.91;39.29
9723;DHT22;4900;49.306;8.500;2023-02-28T10:00:22;12.32;38.96
9723;DHT22;4900;49.306;8.500;2023-02-28T10:03:21;12.64;38.53
9723;DHT22;4900;49.306;8.500;2023-02-28T10:06:01;12.98;38.05
9723;DHT22;4900;49.306;8.500;2023-02-28T10:08:37;13.35;37.54
9723;DHT22;4900;49.306;8.500;2023-02-28T10:11:10;13.67;36.28
9723;DHT22;4900;49.306;8.500;2023-02-28T10:14:06;14.18;36.17
9723;DHT22;4900;49.306;8.500;2023-02-28T10:16:46;14.29;36.03
9723;DHT22;4900;49.306;8.500;2023-02-28T10:22:11;14.46;34.89
9723;DHT22;4900;49.306;8.500;2023-02-28T10:24:41;14.34;33.99
9723;DHT22;4900;49.306;8.500;2023-02-28T10:29:46;14.46;33.74
9723;DHT22;4900;49.306;8.500;2023-02-28T10:32:17;14.33;33.41
9723;DHT22;4900;49.306;8.500;2023-02-28T10:34:43;14.42;33.50
9723;DHT22;4900;49.306;8.500;2023-02-28T10:37:11;14.63;33.21
9723;DHT22;4900;49.306;8.500;2023-02-28T10:39:46;15.01;33.38
9723;DHT22;4900;49.306;8.500;2023-02-28T10:42:38;15.09;32.88
9723;DHT22;4900;49.306;8.500;2023-02-28T10:45:14;15.28;32.01
9723;DHT22;4900;49.306;8.500;2023-02-28T10:50:53;15.60;31.84
9723;DHT22;4900;49.306;8.500;2023-02-28T11:01:13;15.33;31.12
9723;DHT22;4900;49.306;8.500;2023-02-28T11:03:39;15.46;31.19
9723;DHT22;4900;49.306;8.500;2023-02-28T11:06:07;15.14;30.92
9723;DHT22;4900;49.306;8.500;2023-02-28T11:08:33;14.97;31.02
9723;DHT22;4900;49.306;8.500;2023-02-28T11:11:04;15.20;31.07
9723;DHT22;4900;49.306;8.500;2023-02-28T11:13:35;14.97;31.05
9723;DHT22;4900;49.306;8.500;2023-02-28T11:16:05;14.89;31.06
9723;DHT22;4900;49.306;8.500;2023-02-28T11:21:09;14.98;31.08
9723;DHT22;4900;49.306;8.500;2023-02-28T11:23:40;14.95;30.99
9723;DHT22;4900;49.306;8.500;2023-02-28T11:26:06;15.01;30.92
9723;DHT22;4900;49.306;8.500;2023-02-28T11:28:39;14.84;31.39
9723;DHT22;4900;49.306;8.500;2023-02-28T11:31:18;14.92;31.14
9723;DHT22;4900;49.306;8.500;2023-02-28T11:33:50;14.84;30.88
9723;DHT22;4900;49.306;8.500;2023-02-28T11:36:31;14.97;30.75
9723;DHT22;4900;49.306;8.500;2023-02-28T11:38:59;14.89;31.22
9723;DHT22;4900;49.306;8.500;2023-02-28T11:47:00;15.20;31.05
9723;DHT22;4900;49.306;8.500;2023-02-28T11:49:42;15.23;30.97
9723;DHT22;4900;49.306;8.500;2023-02-28T11:52:39;15.40;30.73
9723;DHT22;4900;49.306;8.500;2023-02-28T11:57:56;15.64;30.97
9723;DHT22;4900;49.306;8.500;2023-02-28T12:05:46;16.12;30.57
9723;DHT22;4900;49.306;8.500;2023-02-28T12:08:42;15.96;29.67
9723;DHT22;4900;49.306;8.500;2023-02-28T12:22:35;15.91;30.05
9723;DHT22;4900;49.306;8.500;2023-02-28T12:27:43;16.04;29.82
9723;DHT22;4900;49.306;8.500;2023-02-28T12:30:17;15.91;29.72
9723;DHT22;4900;49.306;8.500;2023-02-28T12:32:47;15.33;29.98
9723;DHT22;4900;49.306;8.500;2023-02-28T12:35:17;15.15;30.15
9723;DHT22;4900;49.306;8.500;2023-02-28T12:37:51;14.67;30.77
9723;DHT22;4900;49.306;8.500;2023-02-28T12:40:23;14.50;30.85
9723;DHT22;4900;49.306;8.500;2023-02-28T12:43:02;14.02;31.14
9723;DHT22;4900;49.306;8.500;2023-02-28T12:45:40;14.14;31.47
9723;DHT22;4900;49.306;8.500;2023-02-28T12:48:11;14.30;31.67
9723;DHT22;4900;49.306;8.500;2023-02-28T12:50:40;14.50;31.38
9723;DHT22;4900;49.306;8.500;2023-02-28T12:53:11;14.70;31.49
9723;DHT22;4900;49.306;8.500;2023-02-28T12:56:12;14.81;31.29
9723;DHT22;4900;49.306;8.500;2023-02-28T12:58:49;15.18;31.07
9723;DHT22;4900;49.306;8.500;2023-02-28T13:01:41;15.51;31.42
9723;DHT22;4900;49.306;8.500;2023-02-28T13:04:25;15.87;30.82
9723;DHT22;4900;49.306;8.500;2023-02-28T13:09:18;16.53;30.38
9723;DHT22;4900;49.306;8.500;2023-02-28T13:11:45;16.87;30.27
9723;DHT22;4900;49.306;8.500;2023-02-28T13:14:36;16.98;29.12
9723;DHT22;4900;49.306;8.500;2023-02-28T13:22:39;17.91;29.18
9723;DHT22;4900;49.306;8.500;2023-02-28T13:27:55;18.41;28.54
9723;DHT22;4900;49.306;8.500;2023-02-28T13:33:28;18.63;28.36
9723;DHT22;4900;49.306;8.500;2023-02-28T13:38:45;18.92;27.57
9723;DHT22;4900;49.306;8.500;2023-02-28T13:46:36;18.31;26.93
9723;DHT22;4900;49.306;8.500;2023-02-28T14:05:31;16.65;30.00
9723;DHT22;4900;49.306;8.500;2023-02-28T14:07:59;16.33;30.02
9723;DHT22;4900;49.306;8.500;2023-02-28T14:10:30;16.04;30.00
9723;DHT22;4900;49.306;8.500;2023-02-28T14:13:01;15.75;30.13
9723;DHT22;4900;49.306;8.500;2023-02-28T14:18:21;15.49;31.46
9723;DHT22;4900;49.306;8.500;2023-02-28T14:20:47;15.87;31.76
9723;DHT22;4900;49.306;8.500;2023-02-28T14:26:11;16.54;31.27
9723;DHT22;4900;49.306;8.500;2023-02-28T14:28:55;16.85;30.60
9723;DHT22;4900;49.306;8.500;2023-02-28T14:31:34;17.26;30.71
9723;DHT22;4900;49.306;8.500;2023-02-28T14:36:58;17.41;29.82
9723;DHT22;4900;49.306;8.500;2023-02-28T14:39:26;17.40;29.96
9723;DHT22;4900;49.306;8.500;2023-02-28T14:41:52;17.61;29.58
9723;DHT22;4900;49.306;8.500;2023-02-28T14:44:21;17.85;29.16
9723;DHT22;4900;49.306;8.500;2023-02-28T14:47:13;17.96;29.71
9723;DHT22;4900;49.306;8.500;2023-02-28T14:49:44;17.75;29.61
9723;DHT22;4900;49.306;8.500;2023-02-28T14:52:15;17.43;29.21
9723;DHT22;4900;49.306;8.500;2023-02-28T14:54:43;17.16;29.13
9723;DHT22;4900;49.306;8.500;2023-02-28T14:57:27;17.12;30.14
9723;DHT22;4900;49.306;8.500;2023-02-28T15:00:15;17.27;30.41
9723;DHT22;4900;49.306;8.500;2023-02-28T15:02:42;16.91;30.35
9723;DHT22;4900;49.306;8.500;2023-02-28T15:07:44;16.87;30.37
9723;DHT22;4900;49.306;8.500;2023-02-28T15:10:24;16.72;29.85
9723;DHT22;4900;49.306;8.500;2023-02-28T15:12:57;16.71;30.05
9723;DHT22;4900;49.306;8.500;2023-02-28T15:21:06;16.64;30.36
9723;DHT22;4900;49.306;8.500;2023-02-28T15:23:34;16.65;30.04
9723;DHT22;4900;49.306;8.500;2023-02-28T15:26:01;16.77;30.12
9723;DHT22;4900;49.306;8.500;2023-02-28T15:28:27;16.79;29.77
9723;DHT22;4900;49.306;8.500;2023-02-28T15:31:03;16.81;29.71
9723;DHT22;4900;49.306;8.500;2023-02-28T15:33:55;16.75;29.87
9723;DHT22;4900;49.306;8.500;2023-02-28T15:36:25;16.71;29.88
9723;DHT22;4900;49.306;8.500;2023-02-28T15:38:53;16.67;30.24
9723;DHT22;4900;49.306;8.500;2023-02-28T15:41:37;16.64;30.03
9723;DHT22;4900;49.306;8.500;2023-02-28T15:47:25;16.32;30.27
9723;DHT22;4900;49.306;8.500;2023-02-28T15:49:58;16.29;29.95
9723;DHT22;4900;49.306;8.500;2023-02-28T15:54:57;16.16;30.10
9723;DHT22;4900;49.306;8.500;2023-02-28T15:57:28;16.12;30.09
9723;DHT22;4900;49.306;8.500;2023-02-28T15:59:57;15.94;30.40
9723;DHT22;4900;49.306;8.500;2023-02-28T16:02:34;15.82;30.58
9723;DHT22;4900;49.306;8.500;2023-02-28T16:07:32;15.46;30.34
9723;DHT22;4900;49.306;8.500;2023-02-28T16:09:59;15.18;30.31
9723;DHT22;4900;49.306;8.500;2023-02-28T16:12:27;14.95;30.51
9723;DHT22;4900;49.306;8.500;2023-02-28T16:14:54;14.57;31.00
9723;DHT22;4900;49.306;8.500;2023-02-28T16:17:26;14.09;31.71
9723;DHT22;4900;49.306;8.500;2023-02-28T16:19:53;13.76;32.03
9723;DHT22;4900;49.306;8.500;2023-02-28T16:22:18;13.64;32.47
9723;DHT22;4900;49.306;8.500;2023-02-28T16:24:44;13.16;32.58
9723;DHT22;4900;49.306;8.500;2023-02-28T16:27:24;12.69;33.50
9723;DHT22;4900;49.306;8.500;2023-02-28T16:29:52;12.20;34.03
9723;DHT22;4900;49.306;8.500;2023-02-28T16:32:18;11.94;34.29
9723;DHT22;4900;49.306;8.500;2023-02-28T16:34:44;11.55;34.90
9723;DHT22;4900;49.306;8.500;2023-02-28T16:37:14;11.18;35.49
9723;DHT22;4900;49.306;8.500;2023-02-28T16:39:42;10.77;36.10
9723;DHT22;4900;49.306;8.500;2023-02-28T16:42:23;10.45;37.00
9723;DHT22;4900;49.306;8.500;2023-02-28T16:44:50;10.04;37.77
9723;DHT22;4900;49.306;8.500;2023-02-28T16:47:16;9.73;38.34
9723;DHT22;4900;49.306;8.500;2023-02-28T16:49:42;9.49;38.80
9723;DHT22;4900;49.306;8.500;2023-02-28T16:52:09;9.21;39.41
9723;DHT22;4900;49.306;8.500;2023-02-28T16:54:34;8.96;40.08
9723;DHT22;4900;49.306;8.500;2023-02-28T16:57:00;8.79;40.08
9723;DHT22;4900;49.306;8.500;2023-02-28T16:59:27;8.59;41.02
9723;DHT22;4900;49.306;8.500;2023-02-28T17:01:54;8.31;41.35
9723;DHT22;4900;49.306;8.500;2023-02-28T17:04:21;8.14;41.72
9723;DHT22;4900;49.306;8.500;2023-02-28T17:06:47;7.93;42.26
9723;DHT22;4900;49.306;8.500;2023-02-28T17:09:21;7.69;42.44
9723;DHT22;4900;49.306;8.500;2023-02-28T17:11:48;7.48;42.88
9723;DHT22;4900;49.306;8.500;2023-02-28T17:14:14;7.28;43.53
9723;DHT22;4900;49.306;8.500;2023-02-28T17:16:40;7.10;44.02
9723;DHT22;4900;49.306;8.500;2023-02-28T17:19:12;6.89;44.39
9723;DHT22;4900;49.306;8.500;2023-02-28T17:21:39;6.70;44.76
9723;DHT22;4900;49.306;8.500;2023-02-28T17:24:07;6.61;45.27
9723;DHT22;4900;49.306;8.500;2023-02-28T17:26:33;6.45;45.39
9723;DHT22;4900;49.306;8.500;2023-02-28T17:28:58;6.33;45.69
9723;DHT22;4900;49.306;8.500;2023-02-28T17:31:26;6.19;45.83
9723;DHT22;4900;49.306;8.500;2023-02-28T17:33:52;6.02;46.20
9723;DHT22;4900;49.306;8.500;2023-02-28T17:36:22;5.91;46.47
9723;DHT22;4900;49.306;8.500;2023-02-28T17:38:49;5.77;46.89
9723;DHT22;4900;49.306;8.500;2023-02-28T17:41:15;5.67;47.23
9723;DHT22;4900;49.306;8.500;2023-02-28T17:43:41;5.51;47.55
9723;DHT22;4900;49.306;8.500;2023-02-28T17:46:15;5.40;47.98
9723;DHT22;4900;49.306;8.500;2023-02-28T17:48:41;5.30;48.06
9723;DHT22;4900;49.306;8.500;2023-02-28T17:51:09;5.22;48.35
9723;DHT22;4900;49.306;8.500;2023-02-28T17:53:36;5.13;48.42
9723;DHT22;4900;49.306;8.500;2023-02-28T17:56:02;5.05;48.51
9723;DHT22;4900;49.306;8.500;2023-02-28T17:58:27;4.97;48.85
9723;DHT22;4900;49.306;8.500;2023-02-28T18:00:53;4.87;48.98
9723;DHT22;4900;49.306;8.500;2023-02-28T18:03:20;4.78;49.21
9723;DHT22;4900;49.306;8.500;2023-02-28T18:05:46;4.73;49.33
9723;DHT22;4900;49.306;8.500;2023-02-28T18:08:12;4.64;49.53
9723;DHT22;4900;49.306;8.500;2023-02-28T18:10:38;4.56;49.74
9723;DHT22;4900;49.306;8.500;2023-02-28T18:13:04;4.49;49.91
9723;DHT22;4900;49.306;8.500;2023-02-28T18:15:30;4.40;50.07
9723;DHT22;4900;49.306;8.500;2023-02-28T18:17:55;4.32;50.22
9723;DHT22;4900;49.306;8.500;2023-02-28T18:20:21;4.24;50.42
9723;DHT22;4900;49.306;8.500;2023-02-28T18:22:47;4.16;50.62
9723;DHT22;4900;49.306;8.500;2023-02-28T18:25:12;4.09;50.87
9723;DHT22;4900;49.306;8.500;2023-02-28T18:27:41;4.02;51.14
9723;DHT22;4900;49.306;8.500;2023-02-28T18:30:19;3.94;51.25
9723;DHT22;4900;49.306;8.500;2023-02-28T18:32:45;3.91;51.41
9723;DHT22;4900;49.306;8.500;2023-02-28T18:35:11;3.83;51.59
9723;DHT22;4900;49.306;8.500;2023-02-28T18:37:36;3.76;51.79
9723;DHT22;4900;49.306;8.500;2023-02-28T18:40:03;3.74;51.93
9723;DHT22;4900;49.306;8.500;2023-02-28T18:42:29;3.66;52.09